createdAt,value
2017-09-17T00:00:30.195Z,0.00
2017-09-17T00:01:25.241Z,0.00
2017-09-17T00:02:26.226Z,0.00
2017-09-17T00:03:26.282Z,0.00
2017-09-17T00:04:21.264Z,0.00
2017-09-17T00:05:21.952Z,0.00
2017-09-17T00:06:15.372Z,0.00
2017-09-17T00:07:15.407Z,0.00
2017-09-17T00:08:10.412Z,0.00
2017-09-17T00:09:05.454Z,0.00
2017-09-17T00:10:05.430Z,0.00
2017-09-17T00:11:00.508Z,0.00
2017-09-17T00:11:55.504Z,0.00
2017-09-17T00:12:55.548Z,0.00
2017-09-17T00:13:50.609Z,0.00
2017-09-17T00:14:45.640Z,0.00
2017-09-17T00:15:47.103Z,0.00
2017-09-17T00:16:46.752Z,0.00
2017-09-17T00:17:46.740Z,0.00
2017-09-17T00:18:41.717Z,0.00
2017-09-17T00:19:36.272Z,0.00
2017-09-17T00:20:35.806Z,0.00
2017-09-17T00:21:30.975Z,0.00
2017-09-17T00:22:30.882Z,0.00
2017-09-17T00:23:24.826Z,0.00
2017-09-17T00:24:24.969Z,0.00
2017-09-17T00:25:19.965Z,0.00
2017-09-17T00:26:14.943Z,0.00
2017-09-17T00:27:15.014Z,0.00
2017-09-17T00:28:10.160Z,0.00
2017-09-17T00:29:05.090Z,0.00
2017-09-17T00:30:06.092Z,0.00
2017-09-17T00:31:06.237Z,0.00
2017-09-17T00:32:06.109Z,0.00
2017-09-17T00:33:01.153Z,0.00
2017-09-17T00:33:55.183Z,0.00
2017-09-17T00:34:55.682Z,0.00
2017-09-17T00:35:50.223Z,0.00
2017-09-17T00:36:50.270Z,0.00
2017-09-17T00:37:44.316Z,0.00
2017-09-17T00:38:44.327Z,0.00
2017-09-17T00:39:39.699Z,0.00
2017-09-17T00:40:34.420Z,0.00
2017-09-17T00:41:34.411Z,0.00
2017-09-17T00:42:29.460Z,0.00
2017-09-17T00:43:24.476Z,0.00
2017-09-17T00:44:25.834Z,0.00
2017-09-17T00:45:25.550Z,0.00
2017-09-17T00:46:25.665Z,0.00
2017-09-17T00:47:20.716Z,0.00
2017-09-17T00:48:14.653Z,0.00
2017-09-17T00:49:15.299Z,0.00
2017-09-17T00:50:09.742Z,0.00
2017-09-17T00:51:09.704Z,0.00
2017-09-17T00:52:03.771Z,0.00
2017-09-17T00:53:03.833Z,0.00
2017-09-17T00:53:58.788Z,0.00
2017-09-17T00:54:53.851Z,0.00
2017-09-17T00:55:53.826Z,0.00
2017-09-17T00:56:48.992Z,0.00
2017-09-17T00:57:43.932Z,0.00
2017-09-17T00:58:44.961Z,0.00
2017-09-17T00:59:45.110Z,0.00
2017-09-17T01:00:45.026Z,0.00
2017-09-17T01:01:40.083Z,0.00
2017-09-17T01:02:34.267Z,0.00
2017-09-17T01:03:34.183Z,0.00
2017-09-17T01:04:29.131Z,0.00
2017-09-17T01:05:29.230Z,0.00
2017-09-17T01:06:23.196Z,0.00
2017-09-17T01:07:23.278Z,0.00
2017-09-17T01:08:18.324Z,0.00
2017-09-17T01:09:18.577Z,0.00
2017-09-17T01:10:18.368Z,0.00
2017-09-17T01:11:24.357Z,0.00
2017-09-17T01:12:19.512Z,0.00
2017-09-17T01:13:13.448Z,0.00
2017-09-17T01:14:13.601Z,0.00
2017-09-17T01:15:13.468Z,0.00
2017-09-17T01:16:08.622Z,0.00
2017-09-17T01:17:02.564Z,0.00
2017-09-17T01:18:02.554Z,0.00
2017-09-17T01:18:57.683Z,0.00
2017-09-17T01:19:57.683Z,0.00
2017-09-17T01:20:57.813Z,0.00
2017-09-17T01:22:03.725Z,0.00
2017-09-17T01:22:58.765Z,0.00
2017-09-17T01:23:58.825Z,0.00
2017-09-17T01:24:58.782Z,0.00
2017-09-17T01:25:58.809Z,0.00
2017-09-17T01:26:53.795Z,0.00
2017-09-17T01:27:59.835Z,0.00
2017-09-17T01:28:54.874Z,0.00
2017-09-17T01:29:48.907Z,0.00
2017-09-17T01:30:48.934Z,0.00
2017-09-17T01:31:49.076Z,0.00
2017-09-17T01:32:43.965Z,0.00
2017-09-17T01:33:38.119Z,0.00
2017-09-17T01:34:38.024Z,0.00
2017-09-17T01:35:33.055Z,0.00
2017-09-17T01:36:28.158Z,0.00
2017-09-17T01:37:29.123Z,0.00
2017-09-17T01:38:29.082Z,0.00
2017-09-17T01:39:29.200Z,0.00
2017-09-17T01:40:24.238Z,0.00
2017-09-17T01:41:18.516Z,0.00
2017-09-17T01:42:18.261Z,0.00
2017-09-17T01:43:13.273Z,0.00
2017-09-17T01:44:13.421Z,0.00
2017-09-17T01:45:07.330Z,0.00
2017-09-17T01:46:07.423Z,0.00
2017-09-17T01:47:02.413Z,0.00
2017-09-17T01:47:57.635Z,0.00
2017-09-17T01:48:57.506Z,0.00
2017-09-17T01:49:52.527Z,0.00
2017-09-17T01:50:47.548Z,0.00
2017-09-17T01:51:53.567Z,0.00
2017-09-17T01:52:47.590Z,0.00
2017-09-17T01:53:47.722Z,0.00
2017-09-17T01:54:43.250Z,0.00
2017-09-17T01:55:42.719Z,0.00
2017-09-17T01:56:36.699Z,0.00
2017-09-17T01:57:36.743Z,0.00
2017-09-17T01:58:31.882Z,0.00
2017-09-17T01:59:26.950Z,0.00
2017-09-17T02:00:26.899Z,0.00
2017-09-17T02:01:22.035Z,0.00
2017-09-17T02:02:17.032Z,0.00
2017-09-17T02:03:16.920Z,0.00
2017-09-17T02:04:12.287Z,0.00
2017-09-17T02:05:11.988Z,0.00
2017-09-17T02:06:11.998Z,0.00
2017-09-17T02:07:18.043Z,0.00
2017-09-17T02:08:13.082Z,0.00
2017-09-17T02:09:13.036Z,0.00
2017-09-17T02:10:08.128Z,0.00
2017-09-17T02:11:03.908Z,0.00
2017-09-17T02:12:03.174Z,0.00
2017-09-17T02:12:58.241Z,0.00
2017-09-17T02:13:53.256Z,0.00
2017-09-17T02:14:54.528Z,0.00
2017-09-17T02:15:55.241Z,0.00
2017-09-17T02:16:50.316Z,0.00
2017-09-17T02:17:44.306Z,0.00
2017-09-17T02:18:45.370Z,0.00
2017-09-17T02:19:40.450Z,0.00
2017-09-17T02:20:34.434Z,0.00
2017-09-17T02:21:34.492Z,0.00
2017-09-17T02:22:29.638Z,0.00
2017-09-17T02:23:29.566Z,0.00
2017-09-17T02:24:23.491Z,0.00
2017-09-17T02:25:23.596Z,0.00
2017-09-17T02:26:18.626Z,0.00
2017-09-17T02:27:18.648Z,0.00
2017-09-17T02:28:18.703Z,0.00
2017-09-17T02:29:19.276Z,0.00
2017-09-17T02:30:18.682Z,0.00
2017-09-17T02:31:24.755Z,0.00
2017-09-17T02:32:19.746Z,0.00
2017-09-17T02:33:20.177Z,0.00
2017-09-17T02:34:14.828Z,0.00
2017-09-17T02:35:09.823Z,0.00
2017-09-17T02:36:10.847Z,0.00
2017-09-17T02:37:10.933Z,0.00
2017-09-17T02:38:10.908Z,0.00
2017-09-17T02:39:06.003Z,0.00
2017-09-17T02:40:00.020Z,0.00
2017-09-17T02:41:00.014Z,0.00
2017-09-17T02:41:55.095Z,0.00
2017-09-17T02:42:55.048Z,0.00
2017-09-17T02:43:55.136Z,0.00
2017-09-17T02:44:55.363Z,0.00
2017-09-17T02:45:49.138Z,0.00
2017-09-17T02:46:49.230Z,0.00
2017-09-17T02:47:44.188Z,0.00
2017-09-17T02:48:44.214Z,0.00
2017-09-17T02:49:38.262Z,0.00
2017-09-17T02:50:38.314Z,0.00
2017-09-17T02:51:33.332Z,0.00
2017-09-17T02:52:28.389Z,0.00
2017-09-17T02:53:29.388Z,0.00
2017-09-17T02:54:29.690Z,0.00
2017-09-17T02:55:24.446Z,0.00
2017-09-17T02:56:30.504Z,0.00
2017-09-17T02:57:25.488Z,0.00
2017-09-17T02:58:19.575Z,0.00
2017-09-17T02:59:19.506Z,0.00
2017-09-17T03:00:19.629Z,0.00
2017-09-17T03:01:14.644Z,0.00
2017-09-17T03:02:08.703Z,0.00
2017-09-17T03:03:08.646Z,0.00
2017-09-17T03:04:03.739Z,0.00
2017-09-17T03:05:09.759Z,0.00
2017-09-17T03:06:04.782Z,0.00
2017-09-17T03:06:58.787Z,0.00
2017-09-17T03:07:59.954Z,0.00
2017-09-17T03:08:54.839Z,0.00
2017-09-17T03:09:48.882Z,0.00
2017-09-17T03:10:48.942Z,0.00
2017-09-17T03:11:43.995Z,0.00
2017-09-17T03:12:44.225Z,0.00
2017-09-17T03:13:38.349Z,0.00
2017-09-17T03:14:38.056Z,0.00
2017-09-17T03:15:33.035Z,0.00
2017-09-17T03:16:28.087Z,0.00
2017-09-17T03:17:28.178Z,0.00
2017-09-17T03:18:34.134Z,0.00
2017-09-17T03:19:34.362Z,0.00
2017-09-17T03:20:28.177Z,0.00
2017-09-17T03:21:28.246Z,0.00
2017-09-17T03:22:28.223Z,0.00
2017-09-17T03:23:23.270Z,0.00
2017-09-17T03:24:17.703Z,0.00
2017-09-17T03:25:18.826Z,0.00
2017-09-17T03:26:18.383Z,0.00
2017-09-17T03:27:18.437Z,0.00
2017-09-17T03:28:13.454Z,0.00
2017-09-17T03:29:13.449Z,0.00
2017-09-17T03:30:13.495Z,0.00
2017-09-17T03:31:07.562Z,0.00
2017-09-17T03:32:08.542Z,0.00
2017-09-17T03:33:08.543Z,0.00
2017-09-17T03:34:08.648Z,0.00
2017-09-17T03:35:04.306Z,0.00
2017-09-17T03:35:57.632Z,0.00
2017-09-17T03:36:57.740Z,0.00
2017-09-17T03:37:52.748Z,0.00
2017-09-17T03:38:47.805Z,0.00
2017-09-17T03:39:47.846Z,0.00
2017-09-17T03:40:42.852Z,0.00
2017-09-17T03:41:37.834Z,0.00
2017-09-17T03:42:37.922Z,0.00
2017-09-17T03:43:32.986Z,0.00
2017-09-17T03:44:27.940Z,0.00
2017-09-17T03:45:28.948Z,0.00
2017-09-17T03:46:28.997Z,0.00
2017-09-17T03:47:29.015Z,0.00
2017-09-17T03:48:24.135Z,0.00
2017-09-17T03:49:18.518Z,0.00
2017-09-17T03:50:18.070Z,0.00
2017-09-17T03:51:13.150Z,0.00
2017-09-17T03:52:13.163Z,0.00
2017-09-17T03:53:07.222Z,0.00
2017-09-17T03:54:08.043Z,0.00
2017-09-17T03:55:02.483Z,0.00
2017-09-17T03:55:57.320Z,0.00
2017-09-17T03:56:58.302Z,0.00
2017-09-17T03:57:58.348Z,0.00
2017-09-17T03:58:53.375Z,0.00
2017-09-17T03:59:53.552Z,0.00
2017-09-17T04:00:47.465Z,0.00
2017-09-17T04:01:47.641Z,0.00
2017-09-17T04:02:42.523Z,0.00
2017-09-17T04:03:37.543Z,0.00
2017-09-17T04:04:37.507Z,0.00
2017-09-17T04:05:32.634Z,0.00
2017-09-17T04:06:27.594Z,0.00
2017-09-17T04:07:27.664Z,0.00
2017-09-17T04:08:22.694Z,0.00
2017-09-17T04:09:18.181Z,0.00
2017-09-17T04:10:18.952Z,0.00
2017-09-17T04:11:18.768Z,0.00
2017-09-17T04:12:18.791Z,0.00
2017-09-17T04:13:13.806Z,0.00
2017-09-17T04:14:07.823Z,0.00
2017-09-17T04:15:08.215Z,0.00
2017-09-17T04:16:02.904Z,0.00
2017-09-17T04:17:02.943Z,0.00
2017-09-17T04:17:56.972Z,0.00
2017-09-17T04:18:57.010Z,0.00
2017-09-17T04:19:52.058Z,0.00
2017-09-17T04:20:47.057Z,0.00
2017-09-17T04:21:47.060Z,0.00
2017-09-17T04:22:42.149Z,0.00
2017-09-17T04:23:37.168Z,0.00
2017-09-17T04:24:38.146Z,0.00
2017-09-17T04:25:38.167Z,0.00
2017-09-17T04:26:38.205Z,0.00
2017-09-17T04:27:33.242Z,0.00
2017-09-17T04:28:27.335Z,0.00
2017-09-17T04:29:27.306Z,0.00
2017-09-17T04:30:22.350Z,0.00
2017-09-17T04:31:22.338Z,0.00
2017-09-17T04:32:16.470Z,0.00
2017-09-17T04:33:16.964Z,0.00
2017-09-17T04:34:11.400Z,0.00
2017-09-17T04:35:07.232Z,0.00
2017-09-17T04:36:06.486Z,0.00
2017-09-17T04:37:01.591Z,0.00
2017-09-17T04:38:01.540Z,0.00
2017-09-17T04:39:01.590Z,0.00
2017-09-17T04:40:01.674Z,0.00
2017-09-17T04:40:55.567Z,0.00
2017-09-17T04:41:55.656Z,0.00
2017-09-17T04:42:50.712Z,0.00
2017-09-17T04:43:45.756Z,0.00
2017-09-17T04:44:51.880Z,0.00
2017-09-17T04:45:45.833Z,0.00
2017-09-17T04:46:45.857Z,0.00
2017-09-17T04:47:40.823Z,0.00
2017-09-17T04:48:40.883Z,0.00
2017-09-17T04:49:34.904Z,0.00
2017-09-17T04:50:34.942Z,0.00
2017-09-17T04:51:30.011Z,0.00
2017-09-17T04:52:25.040Z,0.00
2017-09-17T04:53:25.035Z,0.00
2017-09-17T04:54:20.670Z,0.00
2017-09-17T04:55:15.089Z,0.00
2017-09-17T04:56:16.132Z,0.00
2017-09-17T04:57:16.648Z,0.00
2017-09-17T04:58:11.199Z,0.00
2017-09-17T04:59:17.301Z,0.00
2017-09-17T05:00:12.271Z,0.00
2017-09-17T05:01:06.238Z,0.00
2017-09-17T05:02:06.320Z,0.00
2017-09-17T05:03:01.386Z,0.00
2017-09-17T05:04:01.346Z,0.00
2017-09-17T05:05:02.357Z,0.00
2017-09-17T05:06:02.368Z,0.00
2017-09-17T05:07:02.636Z,0.00
2017-09-17T05:08:02.455Z,0.00
2017-09-17T05:09:02.485Z,0.01
2017-09-17T05:10:02.560Z,0.01
2017-09-17T05:11:02.519Z,0.01
2017-09-17T05:12:02.555Z,0.01
2017-09-17T05:13:08.629Z,0.01
2017-09-17T05:14:08.607Z,0.01
2017-09-17T05:15:09.740Z,0.01
2017-09-17T05:16:10.634Z,0.01
2017-09-17T05:17:04.704Z,0.01
2017-09-17T05:18:04.729Z,0.01
2017-09-17T05:18:59.959Z,0.01
2017-09-17T05:19:59.742Z,0.01
2017-09-17T05:21:00.807Z,0.01
2017-09-17T05:22:01.905Z,0.02
2017-09-17T05:23:01.917Z,0.02
2017-09-17T05:24:01.934Z,0.02
2017-09-17T05:24:55.900Z,0.02
2017-09-17T05:25:55.940Z,0.02
2017-09-17T05:26:51.070Z,0.02
2017-09-17T05:27:46.032Z,0.02
2017-09-17T05:28:46.023Z,0.02
2017-09-17T05:29:46.086Z,0.02
2017-09-17T05:30:46.068Z,0.02
2017-09-17T05:31:46.088Z,0.02
2017-09-17T05:32:40.221Z,0.02
2017-09-17T05:33:41.157Z,0.03
2017-09-17T05:34:41.195Z,0.03
2017-09-17T05:35:36.347Z,0.03
2017-09-17T05:36:36.371Z,0.03
2017-09-17T05:37:37.283Z,0.03
2017-09-17T05:38:37.554Z,0.03
2017-09-17T05:39:37.320Z,0.03
2017-09-17T05:40:37.338Z,0.04
2017-09-17T05:41:37.333Z,0.04
2017-09-17T05:42:37.555Z,0.04
2017-09-17T05:43:37.497Z,0.04
2017-09-17T05:44:37.453Z,0.04
2017-09-17T05:45:37.561Z,0.05
2017-09-17T05:46:37.514Z,0.05
2017-09-17T05:47:37.561Z,0.04
2017-09-17T05:48:37.603Z,0.05
2017-09-17T05:49:43.640Z,0.05
2017-09-17T05:50:38.710Z,0.05
2017-09-17T05:51:32.656Z,0.07
2017-09-17T05:52:33.884Z,0.06
2017-09-17T05:53:34.745Z,0.05
2017-09-17T05:54:29.653Z,0.05
2017-09-17T05:55:29.858Z,0.07
2017-09-17T05:56:29.866Z,0.08
2017-09-17T05:57:29.882Z,0.08
2017-09-17T05:58:29.923Z,0.07
2017-09-17T05:59:29.853Z,0.07
2017-09-17T06:00:29.964Z,0.07
2017-09-17T06:01:29.999Z,0.06
2017-09-17T06:02:30.001Z,0.07
2017-09-17T06:03:30.044Z,0.06
2017-09-17T06:04:30.254Z,0.07
2017-09-17T06:05:30.074Z,0.09
2017-09-17T06:06:30.117Z,0.10
2017-09-17T06:07:30.151Z,0.10
2017-09-17T06:08:30.180Z,0.10
2017-09-17T06:09:30.160Z,0.10
2017-09-17T06:10:36.656Z,0.11
2017-09-17T06:11:31.534Z,0.10
2017-09-17T06:12:25.293Z,0.11
2017-09-17T06:13:25.310Z,0.11
2017-09-17T06:14:20.360Z,0.11
2017-09-17T06:15:15.363Z,0.12
2017-09-17T06:16:15.470Z,0.12
2017-09-17T06:17:10.447Z,0.13
2017-09-17T06:18:05.490Z,0.14
2017-09-17T06:18:59.525Z,0.15
2017-09-17T06:20:00.629Z,0.17
2017-09-17T06:20:55.669Z,0.16
2017-09-17T06:21:55.646Z,0.14
2017-09-17T06:22:55.650Z,0.14
2017-09-17T06:23:55.705Z,0.14
2017-09-17T06:24:56.135Z,0.15
2017-09-17T06:25:55.735Z,0.15
2017-09-17T06:26:55.784Z,0.16
2017-09-17T06:27:56.419Z,0.16
2017-09-17T06:28:55.825Z,0.16
2017-09-17T06:29:56.024Z,0.16
2017-09-17T06:31:01.955Z,0.16
2017-09-17T06:31:56.987Z,0.16
2017-09-17T06:32:57.020Z,0.16
2017-09-17T06:33:57.081Z,0.17
2017-09-17T06:34:57.051Z,0.17
2017-09-17T06:35:57.102Z,0.18
2017-09-17T06:36:51.396Z,0.19
2017-09-17T06:37:39.623Z,0.19
2017-09-17T06:38:27.260Z,0.18
2017-09-17T06:39:22.685Z,0.18
2017-09-17T06:40:17.342Z,0.18
2017-09-17T06:41:17.581Z,0.18
2017-09-17T06:42:13.023Z,0.18
2017-09-17T06:43:07.520Z,0.20
2017-09-17T06:44:07.442Z,0.22
2017-09-17T06:45:02.609Z,0.22
2017-09-17T06:45:57.518Z,0.21
2017-09-17T06:46:51.607Z,0.20
2017-09-17T06:47:51.626Z,0.19
2017-09-17T06:48:46.628Z,0.19
2017-09-17T06:49:46.926Z,0.18
2017-09-17T06:50:47.962Z,0.18
2017-09-17T06:51:41.847Z,0.18
2017-09-17T06:52:42.126Z,0.18
2017-09-17T06:53:37.403Z,0.18
2017-09-17T06:54:31.913Z,0.18
2017-09-17T06:55:25.961Z,0.18
2017-09-17T06:56:26.353Z,0.18
2017-09-17T06:57:21.061Z,0.18
2017-09-17T06:58:16.046Z,0.18
2017-09-17T06:59:16.141Z,0.19
2017-09-17T07:00:11.425Z,0.19
2017-09-17T07:01:06.234Z,0.20
2017-09-17T07:02:00.860Z,0.22
2017-09-17T07:03:01.273Z,0.25
2017-09-17T07:03:56.903Z,0.26
2017-09-17T07:04:56.404Z,0.27
2017-09-17T07:05:56.395Z,0.28
2017-09-17T07:06:44.678Z,0.29
2017-09-17T07:07:38.945Z,0.29
2017-09-17T07:08:39.675Z,0.29
2017-09-17T07:09:39.643Z,0.30
2017-09-17T07:10:39.641Z,0.31
2017-09-17T07:11:39.914Z,0.32
2017-09-17T07:12:39.848Z,0.32
2017-09-17T07:13:40.265Z,0.32
2017-09-17T07:14:39.813Z,0.33
2017-09-17T07:15:40.154Z,0.34
2017-09-17T07:16:27.946Z,0.34
2017-09-17T07:17:16.000Z,0.35
2017-09-17T07:18:10.246Z,0.34
2017-09-17T07:19:10.394Z,0.33
2017-09-17T07:20:04.540Z,0.33
2017-09-17T07:20:59.565Z,0.33
2017-09-17T07:21:48.596Z,0.31
2017-09-17T07:22:37.236Z,0.27
2017-09-17T07:23:32.581Z,0.32
2017-09-17T07:24:32.291Z,0.23
2017-09-17T07:25:38.857Z,0.20
2017-09-17T07:26:38.769Z,0.18
2017-09-17T07:27:39.711Z,0.17
2017-09-17T07:28:40.932Z,0.16
2017-09-17T07:29:30.131Z,0.17
2017-09-17T07:30:23.660Z,0.17
2017-09-17T07:31:18.785Z,0.17
2017-09-17T07:32:13.682Z,0.16
2017-09-17T07:33:02.726Z,0.17
2017-09-17T07:34:02.756Z,0.18
2017-09-17T07:34:57.878Z,0.30
2017-09-17T07:35:58.198Z,0.25
2017-09-17T07:36:58.181Z,0.27
2017-09-17T07:37:58.271Z,0.23
2017-09-17T07:38:52.188Z,0.19
2017-09-17T07:39:52.122Z,0.19
2017-09-17T07:40:47.079Z,0.19
2017-09-17T07:41:41.299Z,0.18
2017-09-17T07:42:29.555Z,0.17
2017-09-17T07:43:24.713Z,0.16
2017-09-17T07:44:18.772Z,0.16
2017-09-17T07:45:07.735Z,0.16
2017-09-17T07:46:02.893Z,0.17
2017-09-17T07:47:02.938Z,0.17
2017-09-17T07:47:57.922Z,0.17
2017-09-17T07:48:52.994Z,0.16
2017-09-17T07:49:52.974Z,0.16
2017-09-17T07:50:48.031Z,0.16
2017-09-17T07:51:43.079Z,0.16
2017-09-17T07:52:37.178Z,0.15
2017-09-17T07:53:24.673Z,0.15
2017-09-17T07:54:12.967Z,0.15
2017-09-17T07:55:01.776Z,0.15
2017-09-17T07:55:49.836Z,0.15
2017-09-17T07:56:39.465Z,0.16
2017-09-17T07:57:26.943Z,0.16
2017-09-17T07:58:14.960Z,0.17
2017-09-17T07:59:08.931Z,0.19
2017-09-17T07:59:58.078Z,0.21
2017-09-17T08:00:53.068Z,0.23
2017-09-17T08:01:53.310Z,0.48
2017-09-17T08:02:42.176Z,0.48
2017-09-17T08:03:37.664Z,0.33
2017-09-17T08:04:32.630Z,0.36
2017-09-17T08:05:20.344Z,0.45
2017-09-17T08:06:20.887Z,0.41
2017-09-17T08:07:15.851Z,0.32
2017-09-17T08:08:04.988Z,0.39
2017-09-17T08:08:52.903Z,0.45
2017-09-17T08:09:48.053Z,0.47
2017-09-17T08:10:35.654Z,0.47
2017-09-17T08:11:23.652Z,0.46
2017-09-17T08:12:24.850Z,0.45
2017-09-17T08:13:24.753Z,0.45
2017-09-17T08:14:19.904Z,0.45
2017-09-17T08:15:14.961Z,0.46
2017-09-17T08:16:08.856Z,0.46
2017-09-17T08:17:03.458Z,0.47
2017-09-17T08:17:51.236Z,0.47
2017-09-17T08:18:40.257Z,0.47
2017-09-17T08:19:35.499Z,0.48
2017-09-17T08:20:24.440Z,0.48
2017-09-17T08:21:18.184Z,0.49
2017-09-17T08:22:12.346Z,0.49
2017-09-17T08:23:07.626Z,0.43
2017-09-17T08:23:55.647Z,0.50
2017-09-17T08:24:44.790Z,0.49
2017-09-17T08:25:38.850Z,0.49
2017-09-17T08:26:38.672Z,0.48
2017-09-17T08:27:44.522Z,0.49
2017-09-17T08:28:44.939Z,0.50
2017-09-17T08:29:34.093Z,0.48
2017-09-17T08:30:21.594Z,0.50
2017-09-17T08:31:22.096Z,0.50
2017-09-17T08:32:15.958Z,0.50
2017-09-17T08:33:04.011Z,0.50
2017-09-17T08:34:03.962Z,0.50
2017-09-17T08:34:59.409Z,0.50
2017-09-17T08:35:53.416Z,0.52
2017-09-17T08:36:48.319Z,0.52
2017-09-17T08:37:37.309Z,0.53
2017-09-17T08:38:31.250Z,0.53
2017-09-17T08:39:25.689Z,0.52
2017-09-17T08:40:14.657Z,0.51
2017-09-17T08:41:09.715Z,0.46
2017-09-17T08:41:57.791Z,0.50
2017-09-17T08:42:57.839Z,0.50
2017-09-17T08:43:46.846Z,0.50
2017-09-17T08:44:46.914Z,0.51
2017-09-17T08:45:42.018Z,0.34
2017-09-17T08:46:30.007Z,0.16
2017-09-17T08:47:24.002Z,0.16
2017-09-17T08:48:24.168Z,0.16
2017-09-17T08:49:19.217Z,0.20
2017-09-17T08:50:13.224Z,0.36
2017-09-17T08:51:08.229Z,0.50
2017-09-17T08:51:56.259Z,0.50
2017-09-17T08:52:56.366Z,0.52
2017-09-17T08:53:56.426Z,0.54
2017-09-17T08:54:45.490Z,0.54
2017-09-17T08:55:39.494Z,0.55
2017-09-17T08:56:33.503Z,0.54
2017-09-17T08:57:27.686Z,0.54
2017-09-17T08:58:21.671Z,0.58
2017-09-17T08:59:21.741Z,0.49
2017-09-17T09:00:16.767Z,0.56
2017-09-17T09:01:04.748Z,0.57
2017-09-17T09:01:58.909Z,0.56
2017-09-17T09:02:52.861Z,0.56
2017-09-17T09:03:46.969Z,0.56
2017-09-17T09:04:47.070Z,0.40
2017-09-17T09:05:42.073Z,0.45
2017-09-17T09:06:36.129Z,0.56
2017-09-17T09:07:30.170Z,0.59
2017-09-17T09:08:25.220Z,0.56
2017-09-17T09:09:19.298Z,0.53
2017-09-17T09:10:13.315Z,0.54
2017-09-17T09:11:08.366Z,0.56
2017-09-17T09:12:03.458Z,0.59
2017-09-17T09:12:57.498Z,0.62
2017-09-17T09:13:51.555Z,0.28
2017-09-17T09:14:45.533Z,0.25
2017-09-17T09:15:45.630Z,0.25
2017-09-17T09:16:39.690Z,0.28
2017-09-17T09:17:39.693Z,0.68
2017-09-17T09:18:39.804Z,0.69
2017-09-17T09:19:27.965Z,0.70
2017-09-17T09:20:21.818Z,0.33
2017-09-17T09:21:15.981Z,0.33
2017-09-17T09:22:10.043Z,0.44
2017-09-17T09:23:04.670Z,0.51
2017-09-17T09:23:58.536Z,0.46
2017-09-17T09:24:47.863Z,0.46
2017-09-17T09:25:35.654Z,0.37
2017-09-17T09:26:31.052Z,0.45
2017-09-17T09:27:19.104Z,0.35
2017-09-17T09:28:13.453Z,0.35
2017-09-17T09:29:07.261Z,0.65
2017-09-17T09:30:01.459Z,0.74
2017-09-17T09:30:55.363Z,0.73
2017-09-17T09:31:49.383Z,0.73
2017-09-17T09:32:37.445Z,0.72
2017-09-17T09:33:25.146Z,0.72
2017-09-17T09:34:20.787Z,0.73
2017-09-17T09:35:14.490Z,0.73
2017-09-17T09:36:02.660Z,0.71
2017-09-17T09:36:51.022Z,0.72
2017-09-17T09:37:45.930Z,0.71
2017-09-17T09:38:33.572Z,0.70
2017-09-17T09:39:34.108Z,0.70
2017-09-17T09:40:22.157Z,0.68
2017-09-17T09:41:11.202Z,0.68
2017-09-17T09:42:05.427Z,0.68
2017-09-17T09:42:54.346Z,0.68
2017-09-17T09:43:49.346Z,0.68
2017-09-17T09:44:38.440Z,0.66
2017-09-17T09:45:33.493Z,0.65
2017-09-17T09:46:27.548Z,0.66
2017-09-17T09:47:15.641Z,0.65
2017-09-17T09:48:03.725Z,0.62
2017-09-17T09:48:58.726Z,0.63
2017-09-17T09:49:52.760Z,0.64
2017-09-17T09:50:41.820Z,0.65
2017-09-17T09:51:35.875Z,0.62
2017-09-17T09:52:31.027Z,0.63
2017-09-17T09:53:30.975Z,0.29
2017-09-17T09:54:26.064Z,0.20
2017-09-17T09:55:14.098Z,0.24
2017-09-17T09:56:08.189Z,0.64
2017-09-17T09:57:02.217Z,0.66
2017-09-17T09:58:02.458Z,0.66
2017-09-17T09:58:50.282Z,0.66
2017-09-17T09:59:44.348Z,0.20
2017-09-17T10:00:39.402Z,0.59
2017-09-17T10:01:33.529Z,0.51
2017-09-17T10:02:27.493Z,0.23
2017-09-17T10:03:21.588Z,0.41
2017-09-17T10:04:16.635Z,0.69
2017-09-17T10:05:10.154Z,0.67
2017-09-17T10:05:59.708Z,0.68
2017-09-17T10:06:53.853Z,0.68
2017-09-17T10:07:48.825Z,0.67
2017-09-17T10:08:36.953Z,0.67
2017-09-17T10:09:31.012Z,0.47
2017-09-17T10:10:24.984Z,0.60
2017-09-17T10:11:19.064Z,0.52
2017-09-17T10:12:14.119Z,0.72
2017-09-17T10:13:03.197Z,0.75
2017-09-17T10:13:58.382Z,0.76
2017-09-17T10:14:52.304Z,0.77
2017-09-17T10:15:46.378Z,0.76
2017-09-17T10:16:40.369Z,0.76
2017-09-17T10:17:34.467Z,0.30
2017-09-17T10:18:22.521Z,0.27
2017-09-17T10:19:22.581Z,0.24
2017-09-17T10:20:11.634Z,0.26
2017-09-17T10:21:05.686Z,0.23
2017-09-17T10:22:05.665Z,0.23
2017-09-17T10:22:59.757Z,0.21
2017-09-17T10:24:00.792Z,0.19
2017-09-17T10:24:55.002Z,0.18
2017-09-17T10:25:49.866Z,0.23
2017-09-17T10:26:43.950Z,0.25
2017-09-17T10:27:44.037Z,0.24
2017-09-17T10:28:32.952Z,0.26
2017-09-17T10:29:22.125Z,0.27
2017-09-17T10:30:16.116Z,0.73
2017-09-17T10:31:10.931Z,0.72
2017-09-17T10:32:05.043Z,0.71
2017-09-17T10:32:59.785Z,0.71
2017-09-17T10:33:54.104Z,0.69
2017-09-17T10:34:48.527Z,0.68
2017-09-17T10:35:42.543Z,0.67
2017-09-17T10:36:37.632Z,0.66
2017-09-17T10:37:31.655Z,0.66
2017-09-17T10:38:19.756Z,0.56
2017-09-17T10:39:13.762Z,0.69
2017-09-17T10:40:01.820Z,0.67
2017-09-17T10:40:50.933Z,0.69
2017-09-17T10:41:45.985Z,0.68
2017-09-17T10:42:40.135Z,0.73
2017-09-17T10:43:35.060Z,0.29
2017-09-17T10:44:30.142Z,0.67
2017-09-17T10:45:19.092Z,0.45
2017-09-17T10:46:18.638Z,0.71
2017-09-17T10:47:12.844Z,0.70
2017-09-17T10:48:14.297Z,0.43
2017-09-17T10:49:14.357Z,0.63
2017-09-17T10:50:03.475Z,0.35
2017-09-17T10:50:57.476Z,0.29
2017-09-17T10:51:52.476Z,0.22
2017-09-17T10:52:46.578Z,0.22
2017-09-17T10:53:46.658Z,0.29
2017-09-17T10:54:41.705Z,0.39
2017-09-17T10:55:30.707Z,0.24
2017-09-17T10:56:30.736Z,0.46
2017-09-17T10:57:24.808Z,0.27
2017-09-17T10:58:24.799Z,0.75
2017-09-17T10:59:19.941Z,0.75
2017-09-17T11:00:13.952Z,0.75
2017-09-17T11:01:08.053Z,0.27
2017-09-17T11:02:03.058Z,0.26
2017-09-17T11:03:03.177Z,0.24
2017-09-17T11:04:03.240Z,0.22
2017-09-17T11:04:52.290Z,0.22
2017-09-17T11:05:52.250Z,0.21
2017-09-17T11:06:52.335Z,0.21
2017-09-17T11:07:46.364Z,0.21
2017-09-17T11:08:46.423Z,0.21
2017-09-17T11:09:46.461Z,0.22
2017-09-17T11:10:46.473Z,0.22
2017-09-17T11:11:40.577Z,0.22
2017-09-17T11:12:29.606Z,0.22
2017-09-17T11:13:29.571Z,0.22
2017-09-17T11:14:23.742Z,0.21
2017-09-17T11:15:17.770Z,0.22
2017-09-17T11:16:06.766Z,0.22
2017-09-17T11:16:55.821Z,0.23
2017-09-17T11:17:49.827Z,0.23
2017-09-17T11:18:38.934Z,0.24
2017-09-17T11:19:39.016Z,0.24
2017-09-17T11:20:32.985Z,0.25
2017-09-17T11:21:27.030Z,0.25
2017-09-17T11:22:16.097Z,0.25
2017-09-17T11:23:11.145Z,0.25
2017-09-17T11:24:05.168Z,0.25
2017-09-17T11:24:59.302Z,0.25
2017-09-17T11:25:53.368Z,0.25
2017-09-17T11:26:42.360Z,0.48
2017-09-17T11:27:36.394Z,0.27
2017-09-17T11:28:36.158Z,0.28
2017-09-17T11:29:31.595Z,0.28
2017-09-17T11:30:25.143Z,0.28
2017-09-17T11:31:25.387Z,0.31
2017-09-17T11:32:20.165Z,0.36
2017-09-17T11:33:15.207Z,0.30
2017-09-17T11:34:15.636Z,0.28
2017-09-17T11:35:10.220Z,0.27
2017-09-17T11:36:05.338Z,0.26
2017-09-17T11:36:53.396Z,0.26
2017-09-17T11:37:53.410Z,0.25
2017-09-17T11:38:47.479Z,0.23
2017-09-17T11:39:41.787Z,0.21
2017-09-17T11:40:35.551Z,0.20
2017-09-17T11:41:35.678Z,0.19
2017-09-17T11:42:24.689Z,0.18
2017-09-17T11:43:24.702Z,0.19
2017-09-17T11:44:19.148Z,0.20
2017-09-17T11:45:13.301Z,0.47
2017-09-17T11:46:12.856Z,0.51
2017-09-17T11:47:06.856Z,0.25
2017-09-17T11:48:06.933Z,0.26
2017-09-17T11:49:01.961Z,0.27
2017-09-17T11:49:56.035Z,0.27
2017-09-17T11:50:50.027Z,0.27
2017-09-17T11:51:38.097Z,0.27
2017-09-17T11:52:27.214Z,0.27
2017-09-17T11:53:21.228Z,0.26
2017-09-17T11:54:15.221Z,0.25
2017-09-17T11:55:15.303Z,0.23
2017-09-17T11:56:03.327Z,0.22
2017-09-17T11:56:58.465Z,0.21
2017-09-17T11:57:53.485Z,0.29
2017-09-17T11:58:42.566Z,0.26
2017-09-17T11:59:36.825Z,0.58
2017-09-17T12:00:26.034Z,0.62
2017-09-17T12:01:25.756Z,0.57
2017-09-17T12:02:20.817Z,0.21
2017-09-17T12:03:09.916Z,0.19
2017-09-17T12:03:58.904Z,0.18
2017-09-17T12:04:52.938Z,0.18
2017-09-17T12:05:47.151Z,0.18
2017-09-17T12:06:41.210Z,0.19
2017-09-17T12:07:36.197Z,0.19
2017-09-17T12:08:25.046Z,0.20
2017-09-17T12:09:14.281Z,0.20
2017-09-17T12:10:03.327Z,0.21
2017-09-17T12:10:52.454Z,0.22
2017-09-17T12:11:40.650Z,0.24
2017-09-17T12:12:28.251Z,0.24
2017-09-17T12:13:17.883Z,0.25
2017-09-17T12:14:12.889Z,0.27
2017-09-17T12:15:06.549Z,0.28
2017-09-17T12:16:00.837Z,0.27
2017-09-17T12:16:55.542Z,0.27
2017-09-17T12:17:45.011Z,0.26
2017-09-17T12:18:38.706Z,0.24
2017-09-17T12:19:34.366Z,0.23
2017-09-17T12:20:28.246Z,0.22
2017-09-17T12:21:23.227Z,0.20
2017-09-17T12:22:12.351Z,0.20
2017-09-17T12:23:07.339Z,0.20
2017-09-17T12:24:01.444Z,0.20
2017-09-17T12:24:55.492Z,0.21
2017-09-17T12:25:44.519Z,0.22
2017-09-17T12:26:38.529Z,0.24
2017-09-17T12:27:26.596Z,0.25